createdAt,value
2019-03-06T00:01:37.901Z,3.97
2019-03-06T00:04:04.631Z,3.50
2019-03-06T00:06:31.389Z,3.93
2019-03-06T00:08:58.535Z,4.70
2019-03-06T00:11:27.736Z,3.80
2019-03-06T00:13:54.465Z,3.97
2019-03-06T00:16:21.188Z,4.27
2019-03-06T00:18:47.919Z,3.83
2019-03-06T00:21:18.273Z,4.20
2019-03-06T00:23:45.015Z,4.30
2019-03-06T00:26:11.761Z,4.20
2019-03-06T00:28:38.496Z,4.57
2019-03-06T00:31:05.209Z,4.50
2019-03-06T00:33:31.973Z,4.53
2019-03-06T00:35:59.581Z,4.50
2019-03-06T00:38:26.329Z,4.17
2019-03-06T00:40:59.695Z,4.23
2019-03-06T00:43:26.421Z,4.13
2019-03-06T00:45:56.159Z,3.70
2019-03-06T00:48:22.915Z,3.07
2019-03-06T00:50:49.699Z,2.90
2019-03-06T00:53:17.353Z,2.60
2019-03-06T00:55:44.402Z,2.90
2019-03-06T00:58:11.174Z,3.40
2019-03-06T01:00:37.935Z,2.83
2019-03-06T01:03:04.831Z,2.80
2019-03-06T01:05:31.587Z,3.13
2019-03-06T01:07:58.340Z,2.60
2019-03-06T01:10:25.094Z,2.87
2019-03-06T01:12:54.787Z,2.63
2019-03-06T01:15:21.535Z,3.67
2019-03-06T01:17:48.681Z,3.80
2019-03-06T01:20:15.558Z,3.00
2019-03-06T01:22:42.317Z,2.50
2019-03-06T01:25:09.195Z,3.03
2019-03-06T01:27:36.021Z,3.33
2019-03-06T01:30:03.438Z,3.47
2019-03-06T01:32:32.488Z,3.50
2019-03-06T01:35:19.093Z,3.40
2019-03-06T01:38:04.617Z,2.73
2019-03-06T01:40:49.525Z,2.73
2019-03-06T01:43:20.859Z,2.63
2019-03-06T01:45:47.599Z,3.03
2019-03-06T01:48:14.542Z,2.50
2019-03-06T01:50:41.263Z,2.27
2019-03-06T01:53:08.056Z,2.80
2019-03-06T01:55:34.884Z,2.83
2019-03-06T01:58:01.622Z,1.80
2019-03-06T02:00:28.472Z,2.40
2019-03-06T02:05:35.727Z,2.50
2019-03-06T02:08:02.460Z,2.63
2019-03-06T02:10:29.401Z,2.70
2019-03-06T02:12:56.153Z,2.80
2019-03-06T02:15:22.887Z,2.57
2019-03-06T02:17:49.624Z,3.00
2019-03-06T02:20:16.552Z,2.80
2019-03-06T02:22:43.310Z,3.00
2019-03-06T02:25:10.051Z,3.33
2019-03-06T02:27:36.991Z,2.53
2019-03-06T02:30:06.812Z,2.60
2019-03-06T02:32:33.634Z,3.50
2019-03-06T02:35:00.527Z,2.40
2019-03-06T02:37:27.317Z,2.20
2019-03-06T02:39:54.246Z,2.50
2019-03-06T02:42:20.990Z,2.30
2019-03-06T02:44:47.738Z,2.60
2019-03-06T02:47:14.458Z,2.83
2019-03-06T02:49:42.294Z,2.20
2019-03-06T02:52:09.780Z,2.20
2019-03-06T02:54:36.561Z,2.73
2019-03-06T02:57:04.485Z,2.47
2019-03-06T02:59:53.794Z,2.73
2019-03-06T03:02:43.134Z,2.70
2019-03-06T03:05:29.023Z,2.60
2019-03-06T03:07:56.001Z,2.03
2019-03-06T03:10:23.225Z,2.87
2019-03-06T03:12:49.950Z,3.13
2019-03-06T03:15:19.306Z,3.00
2019-03-06T03:17:46.025Z,2.90
2019-03-06T03:20:12.740Z,2.70
2019-03-06T03:22:39.496Z,2.93
2019-03-06T03:25:06.577Z,2.60
2019-03-06T03:27:33.345Z,2.60
2019-03-06T03:30:00.653Z,2.70
2019-03-06T03:32:27.648Z,3.00
2019-03-06T03:34:54.412Z,2.90
2019-03-06T03:37:21.170Z,2.70
2019-03-06T03:39:48.141Z,2.90
2019-03-06T03:42:14.918Z,3.20
2019-03-06T03:44:42.035Z,2.57
2019-03-06T03:47:08.912Z,2.80
2019-03-06T03:49:35.705Z,2.87
2019-03-06T03:52:02.569Z,3.10
2019-03-06T03:54:29.606Z,2.80
2019-03-06T03:56:56.429Z,2.70
2019-03-06T03:59:25.899Z,2.50
2019-03-06T04:01:52.674Z,2.60
2019-03-06T04:04:21.756Z,2.40
2019-03-06T04:06:48.509Z,2.50
2019-03-06T04:09:15.254Z,2.53
2019-03-06T04:11:41.986Z,2.60
2019-03-06T04:14:08.716Z,2.33
2019-03-06T04:16:35.610Z,2.27
2019-03-06T04:19:02.442Z,2.30
2019-03-06T04:21:29.179Z,2.10
2019-03-06T04:23:56.031Z,2.50
2019-03-06T04:26:24.156Z,2.50
2019-03-06T04:28:51.277Z,2.50
2019-03-06T04:31:19.668Z,2.30
2019-03-06T04:33:46.431Z,2.43
2019-03-06T04:36:13.901Z,2.40
2019-03-06T04:38:40.635Z,2.40
2019-03-06T04:41:07.355Z,2.30
2019-03-06T04:43:34.202Z,2.57
2019-03-06T04:46:01.367Z,2.90
2019-03-06T04:48:28.106Z,2.90
2019-03-06T04:50:54.852Z,3.50
2019-03-06T04:53:21.552Z,3.20
2019-03-06T04:55:48.285Z,2.90
2019-03-06T04:58:15.013Z,2.70
2019-03-06T05:00:42.063Z,2.73
2019-03-06T05:03:08.792Z,3.00
2019-03-06T05:05:35.566Z,2.30
2019-03-06T05:08:02.291Z,2.30
2019-03-06T05:10:29.038Z,2.60
2019-03-06T05:12:55.769Z,2.27
2019-03-06T05:15:22.640Z,2.80
2019-03-06T05:18:00.046Z,2.70
2019-03-06T05:20:26.811Z,2.33
2019-03-06T05:22:54.037Z,2.90
2019-03-06T05:25:20.762Z,2.60
2019-03-06T05:27:47.506Z,2.13
2019-03-06T05:30:14.924Z,2.70
2019-03-06T05:32:41.747Z,2.47
2019-03-06T05:35:39.033Z,3.10
2019-03-06T05:38:16.466Z,2.47
2019-03-06T05:40:43.210Z,2.77
2019-03-06T05:43:09.948Z,3.93
2019-03-06T05:45:36.688Z,4.30
2019-03-06T05:48:03.531Z,4.07
2019-03-06T05:50:30.326Z,3.80
2019-03-06T05:52:57.118Z,3.40
2019-03-06T05:55:23.843Z,2.90
2019-03-06T05:57:50.588Z,2.60
2019-03-06T06:00:18.957Z,2.47
2019-03-06T06:02:45.707Z,1.90
2019-03-06T06:05:12.480Z,2.70
2019-03-06T06:07:39.333Z,2.00
2019-03-06T06:10:08.822Z,3.90
2019-03-06T06:12:35.580Z,4.70
2019-03-06T06:15:03.968Z,3.47
2019-03-06T06:17:30.820Z,3.00
2019-03-06T06:19:57.776Z,5.10
2019-03-06T06:22:43.001Z,6.70
2019-03-06T06:25:09.713Z,2.23
2019-03-06T06:27:36.442Z,3.00
2019-03-06T06:30:03.264Z,3.63
2019-03-06T06:32:30.083Z,2.63
2019-03-06T06:34:56.825Z,2.70
2019-03-06T06:37:23.678Z,3.33
2019-03-06T06:39:50.583Z,3.30
2019-03-06T06:42:17.314Z,3.80
2019-03-06T06:44:44.201Z,3.23
2019-03-06T06:47:11.084Z,3.40
2019-03-06T06:49:37.992Z,3.40
2019-03-06T06:52:23.428Z,2.70
2019-03-06T06:55:27.558Z,2.97
2019-03-06T06:58:31.564Z,2.77
2019-03-06T07:01:37.967Z,2.93
2019-03-06T07:05:12.026Z,2.10
2019-03-06T07:07:58.882Z,2.57
2019-03-06T07:10:36.775Z,2.10
2019-03-06T07:13:24.311Z,2.83
2019-03-06T07:16:24.643Z,2.67
2019-03-06T07:19:18.979Z,3.57
2019-03-06T07:21:56.718Z,2.80
2019-03-06T07:24:48.817Z,2.37
2019-03-06T07:27:26.971Z,2.63
2019-03-06T07:30:03.558Z,3.77
2019-03-06T07:32:52.475Z,2.60
2019-03-06T07:36:15.147Z,2.37
2019-03-06T07:38:43.028Z,2.53
2019-03-06T07:41:27.775Z,2.40
2019-03-06T07:44:15.083Z,2.40
2019-03-06T07:47:00.327Z,2.77
2019-03-06T07:49:44.436Z,3.27
2019-03-06T07:52:18.738Z,2.47
2019-03-06T07:55:17.114Z,3.67
2019-03-06T07:58:20.492Z,3.20
2019-03-06T08:00:47.538Z,2.40
2019-03-06T08:03:22.283Z,2.87
2019-03-06T08:05:49.614Z,2.60
2019-03-06T08:08:16.331Z,2.37
2019-03-06T08:10:43.100Z,2.47
2019-03-06T08:13:34.937Z,5.30
2019-03-06T08:16:09.387Z,4.50
2019-03-06T08:19:01.730Z,2.40
2019-03-06T08:21:42.545Z,2.47
2019-03-06T08:24:16.739Z,2.40
2019-03-06T08:26:43.569Z,2.10
2019-03-06T08:29:10.367Z,2.20
2019-03-06T08:31:58.623Z,2.10
2019-03-06T08:34:25.357Z,2.93
2019-03-06T08:36:52.208Z,3.27
2019-03-06T08:39:22.733Z,3.23
2019-03-06T08:41:49.476Z,2.97
2019-03-06T08:44:16.617Z,2.53
2019-03-06T08:47:12.289Z,2.30
2019-03-06T08:50:13.959Z,3.53
2019-03-06T08:52:51.896Z,3.50
2019-03-06T08:55:28.197Z,3.00
2019-03-06T08:58:07.336Z,3.57
2019-03-06T09:01:08.885Z,1.50
2019-03-06T09:03:58.119Z,6.93
2019-03-06T09:06:39.815Z,2.30
2019-03-06T09:09:26.503Z,2.67
2019-03-06T09:12:09.695Z,2.30
2019-03-06T09:14:56.373Z,1.70
2019-03-06T09:17:45.495Z,1.00
2019-03-06T09:20:37.175Z,0.90
2019-03-06T09:23:29.340Z,1.03
2019-03-06T09:26:16.711Z,1.27
2019-03-06T09:28:50.008Z,1.07
2019-03-06T09:31:23.297Z,1.20
2019-03-06T09:34:09.781Z,1.60
2019-03-06T09:36:59.059Z,1.20
2019-03-06T09:39:54.478Z,1.00
2019-03-06T09:42:32.991Z,1.07
2019-03-06T09:45:09.193Z,1.07
2019-03-06T09:47:46.051Z,1.53
2019-03-06T09:50:22.933Z,0.90
2019-03-06T09:53:13.284Z,1.23
2019-03-06T09:56:11.633Z,1.23
2019-03-06T09:59:17.731Z,0.90
2019-03-06T10:02:06.753Z,1.20
2019-03-06T10:04:36.530Z,1.07
2019-03-06T10:07:22.936Z,0.90
2019-03-06T10:10:10.304Z,1.00
2019-03-06T10:13:03.498Z,0.93
2019-03-06T10:15:55.891Z,0.90
2019-03-06T10:18:27.934Z,0.90
2019-03-06T10:20:54.875Z,1.00
2019-03-06T10:23:21.649Z,0.87
2019-03-06T10:25:49.522Z,1.03
2019-03-06T10:28:16.265Z,0.90
2019-03-06T10:30:43.014Z,1.20
2019-03-06T10:33:09.743Z,1.23
2019-03-06T10:35:36.487Z,0.97
2019-03-06T10:38:03.222Z,0.93
2019-03-06T10:40:30.605Z,1.00
2019-03-06T10:42:59.531Z,1.13
2019-03-06T10:45:27.674Z,1.07
2019-03-06T10:47:54.821Z,1.07
2019-03-06T10:50:27.360Z,1.10
2019-03-06T10:52:53.018Z,1.10
2019-03-06T10:55:19.885Z,1.00
2019-03-06T10:57:48.813Z,0.90
2019-03-06T11:00:19.791Z,1.00
2019-03-06T11:02:47.232Z,0.90
2019-03-06T11:05:23.552Z,1.03
2019-03-06T11:07:53.147Z,1.20
2019-03-06T11:10:23.714Z,1.10
2019-03-06T11:12:49.041Z,1.00
2019-03-06T11:15:16.435Z,1.10
2019-03-06T11:17:43.382Z,0.87
2019-03-06T11:20:12.475Z,1.17
2019-03-06T11:22:39.359Z,1.30
2019-03-06T11:25:06.562Z,1.00
2019-03-06T11:27:33.355Z,1.10
2019-03-06T11:30:02.835Z,1.10
2019-03-06T11:32:29.970Z,1.50
2019-03-06T11:34:56.796Z,1.10
2019-03-06T11:37:23.503Z,1.00
2019-03-06T11:39:50.229Z,1.20
2019-03-06T11:42:17.462Z,1.23
2019-03-06T11:44:44.272Z,1.00
2019-03-06T11:47:12.132Z,1.00
2019-03-06T11:49:38.952Z,1.00
2019-03-06T11:52:06.556Z,1.03
2019-03-06T11:54:33.387Z,1.00
2019-03-06T11:57:00.143Z,1.10
2019-03-06T11:59:26.831Z,0.90
2019-03-06T12:01:56.940Z,1.10
2019-03-06T12:04:23.647Z,1.30
2019-03-06T12:06:50.762Z,1.20
2019-03-06T12:09:29.042Z,1.20
2019-03-06T12:11:55.783Z,1.20
2019-03-06T12:14:22.655Z,1.30
2019-03-06T12:16:49.691Z,1.23
2019-03-06T12:19:16.504Z,1.10
2019-03-06T12:21:44.211Z,0.83
2019-03-06T12:24:13.199Z,0.90
2019-03-06T12:26:42.341Z,0.90
2019-03-06T12:29:09.128Z,1.03
2019-03-06T12:31:36.172Z,1.20
2019-03-06T12:34:03.051Z,1.10
2019-03-06T12:36:29.908Z,1.43
2019-03-06T12:38:57.487Z,1.50
2019-03-06T12:41:24.306Z,0.90
2019-03-06T12:43:51.046Z,1.23
2019-03-06T12:46:23.767Z,1.00
2019-03-06T12:49:01.831Z,1.33
2019-03-06T12:51:31.729Z,1.30
2019-03-06T12:53:58.758Z,0.90
2019-03-06T12:56:26.057Z,1.03
2019-03-06T12:58:52.857Z,1.17
2019-03-06T13:01:19.549Z,1.10
2019-03-06T13:03:47.469Z,0.90
2019-03-06T13:06:24.191Z,1.00
2019-03-06T13:08:50.407Z,1.10
2019-03-06T13:11:12.473Z,0.90
2019-03-06T13:13:39.315Z,1.20
2019-03-06T13:16:06.057Z,1.30
2019-03-06T13:18:32.808Z,1.10
2019-03-06T13:21:01.573Z,1.07
2019-03-06T13:23:30.381Z,1.37
2019-03-06T13:25:57.282Z,1.33
2019-03-06T13:28:24.026Z,1.33
2019-03-06T13:30:50.753Z,1.17
2019-03-06T13:33:26.038Z,1.03
2019-03-06T13:35:52.740Z,0.90
2019-03-06T13:38:19.464Z,1.20
2019-03-06T13:40:46.205Z,1.40
2019-03-06T13:43:12.942Z,1.63
2019-03-06T13:45:39.900Z,1.20
2019-03-06T13:48:06.623Z,1.57
2019-03-06T13:50:33.346Z,0.87
2019-03-06T13:53:00.071Z,0.93
2019-03-06T13:55:36.479Z,1.17
2019-03-06T13:58:06.368Z,1.23
2019-03-06T14:00:33.124Z,1.40
2019-03-06T14:02:59.872Z,1.10
2019-03-06T14:05:28.556Z,1.40
2019-03-06T14:07:56.673Z,1.00
2019-03-06T14:10:24.252Z,1.00
2019-03-06T14:12:59.494Z,1.27
2019-03-06T14:15:26.223Z,2.63
2019-03-06T14:17:53.049Z,1.20
2019-03-06T14:20:20.948Z,1.10
2019-03-06T14:22:47.646Z,1.37
2019-03-06T14:25:14.525Z,1.30
2019-03-06T14:27:41.796Z,1.40
2019-03-06T14:30:09.866Z,1.20
2019-03-06T14:32:38.584Z,1.13
2019-03-06T14:35:05.422Z,1.20
2019-03-06T14:37:32.676Z,1.30
2019-03-06T14:40:03.035Z,1.30
2019-03-06T14:42:28.164Z,1.37
2019-03-06T14:44:58.400Z,1.00
2019-03-06T14:47:25.136Z,1.03
2019-03-06T14:49:51.990Z,1.23
2019-03-06T14:52:18.947Z,1.40
2019-03-06T14:54:45.779Z,1.53
2019-03-06T14:57:12.885Z,1.70
2019-03-06T14:59:39.719Z,1.60
2019-03-06T15:02:07.024Z,1.23
2019-03-06T15:04:33.780Z,1.40
2019-03-06T15:07:00.888Z,1.80
2019-03-06T15:09:27.761Z,1.70
2019-03-06T15:11:54.918Z,1.50
2019-03-06T15:14:21.737Z,1.73
2019-03-06T15:16:48.442Z,1.30
2019-03-06T15:19:15.416Z,1.60
2019-03-06T15:21:42.135Z,1.50
2019-03-06T15:24:08.861Z,1.47
2019-03-06T15:26:35.763Z,1.80
2019-03-06T15:29:02.618Z,1.50
2019-03-06T15:31:29.472Z,1.13
2019-03-06T15:33:56.312Z,1.70
2019-03-06T15:36:23.117Z,2.03
2019-03-06T15:38:49.878Z,1.50
2019-03-06T15:41:16.592Z,1.43
2019-03-06T15:43:43.419Z,1.40
2019-03-06T15:46:10.498Z,2.40
2019-03-06T15:48:37.326Z,2.00
2019-03-06T15:51:04.471Z,1.67
2019-03-06T15:53:33.538Z,1.87
2019-03-06T15:56:00.264Z,1.80
2019-03-06T15:58:27.006Z,1.60
2019-03-06T16:00:53.778Z,1.90
2019-03-06T16:03:20.538Z,2.00
2019-03-06T16:05:47.256Z,1.73
2019-03-06T16:08:14.226Z,1.60
2019-03-06T16:10:41.269Z,1.60
2019-03-06T16:13:08.126Z,1.70
2019-03-06T16:15:34.813Z,1.70
2019-03-06T16:18:02.028Z,2.10
2019-03-06T16:20:31.629Z,1.80
2019-03-06T16:22:58.353Z,1.83
2019-03-06T16:25:25.047Z,1.90
2019-03-06T16:27:52.178Z,2.00
2019-03-06T16:30:19.104Z,2.30
2019-03-06T16:32:45.835Z,1.60
2019-03-06T16:35:12.566Z,2.10
2019-03-06T16:37:39.374Z,2.43
2019-03-06T16:40:13.547Z,1.90
2019-03-06T16:42:40.399Z,1.57
2019-03-06T16:45:12.946Z,1.37
2019-03-06T16:47:39.988Z,2.03
2019-03-06T16:50:14.306Z,2.03
2019-03-06T16:52:36.822Z,1.87
2019-03-06T16:55:04.551Z,1.90
2019-03-06T16:57:31.461Z,1.73
2019-03-06T16:59:58.213Z,2.03
2019-03-06T17:02:27.526Z,2.00
2019-03-06T17:04:54.677Z,1.80
2019-03-06T17:07:21.578Z,1.60
2019-03-06T17:09:48.672Z,2.13
2019-03-06T17:12:15.487Z,1.37
2019-03-06T17:14:42.371Z,1.40
2019-03-06T17:17:09.236Z,1.70
2019-03-06T17:19:36.002Z,1.50
2019-03-06T17:22:02.726Z,1.70
2019-03-06T17:24:29.621Z,1.87
2019-03-06T17:27:23.636Z,2.20
2019-03-06T17:29:50.504Z,2.33
2019-03-06T17:32:17.420Z,2.30
2019-03-06T17:34:44.192Z,2.10
2019-03-06T17:37:11.604Z,2.63
2019-03-06T17:39:38.927Z,2.93
2019-03-06T17:42:05.657Z,3.00
2019-03-06T17:44:32.924Z,3.10
2019-03-06T17:46:59.951Z,1.93
2019-03-06T17:49:29.807Z,2.47
2019-03-06T17:51:56.504Z,2.73
2019-03-06T17:54:23.252Z,2.13
2019-03-06T17:56:50.003Z,2.40
2019-03-06T17:59:16.865Z,2.17
2019-03-06T18:01:44.366Z,2.97
2019-03-06T18:04:14.243Z,2.13
2019-03-06T18:06:41.010Z,1.77
2019-03-06T18:09:07.750Z,1.97
2019-03-06T18:11:38.909Z,2.03
2019-03-06T18:14:07.237Z,2.30
2019-03-06T18:16:34.498Z,3.67
2019-03-06T18:19:01.600Z,2.60
2019-03-06T18:21:28.335Z,1.83
2019-03-06T18:23:55.073Z,1.80
2019-03-06T18:26:21.912Z,1.70
2019-03-06T18:28:48.763Z,2.50
2019-03-06T18:31:15.496Z,3.43
2019-03-06T18:33:42.225Z,2.57
2019-03-06T18:36:09.087Z,2.20
2019-03-06T18:38:35.822Z,2.27
2019-03-06T18:41:02.671Z,2.40
2019-03-06T18:43:29.411Z,2.70
2019-03-06T18:45:59.018Z,2.67
2019-03-06T18:48:28.613Z,2.90
2019-03-06T18:50:55.337Z,3.00
2019-03-06T18:53:22.725Z,3.40
2019-03-06T18:55:49.766Z,3.43
2019-03-06T18:58:18.289Z,4.00
2019-03-06T19:00:45.404Z,3.90
2019-03-06T19:03:12.228Z,3.67
2019-03-06T19:05:40.970Z,4.30
2019-03-06T19:08:08.155Z,3.53
2019-03-06T19:10:34.997Z,3.20
2019-03-06T19:13:01.778Z,3.37
2019-03-06T19:15:28.771Z,3.20
2019-03-06T19:17:55.520Z,3.60
2019-03-06T19:20:22.349Z,3.80
2019-03-06T19:22:49.682Z,3.10
2019-03-06T19:25:16.664Z,3.50
2019-03-06T19:27:43.517Z,3.90
2019-03-06T19:30:21.409Z,3.80
2019-03-06T19:32:50.957Z,4.33
2019-03-06T19:35:18.637Z,3.67
2019-03-06T19:37:45.354Z,3.53
2019-03-06T19:40:12.812Z,3.00
2019-03-06T19:42:39.731Z,3.40
2019-03-06T19:45:07.213Z,3.20
2019-03-06T19:47:33.945Z,3.30
2019-03-06T19:50:00.663Z,3.27
2019-03-06T19:52:27.364Z,2.97
2019-03-06T19:54:54.117Z,2.90
2019-03-06T19:57:20.835Z,2.13
2019-03-06T19:59:49.268Z,2.50
2019-03-06T20:02:16.238Z,2.40
2019-03-06T20:04:43.381Z,2.37
2019-03-06T20:07:10.098Z,3.00
2019-03-06T20:09:36.829Z,2.77
2019-03-06T20:12:08.685Z,2.87
2019-03-06T20:14:35.576Z,2.60
2019-03-06T20:17:02.304Z,1.50
2019-03-06T20:19:29.843Z,2.00
2019-03-06T20:21:59.285Z,1.40
2019-03-06T20:24:26.071Z,1.50
2019-03-06T20:26:52.908Z,1.70
2019-03-06T20:29:19.625Z,2.23
2019-03-06T20:31:46.481Z,2.33
2019-03-06T20:34:13.203Z,2.13
2019-03-06T20:36:39.915Z,2.20
2019-03-06T20:39:06.920Z,2.87
2019-03-06T20:41:33.626Z,2.23
2019-03-06T20:44:00.325Z,2.20
2019-03-06T20:46:27.150Z,2.73
2019-03-06T20:48:54.121Z,2.47
2019-03-06T20:51:21.233Z,2.70
2019-03-06T20:53:47.946Z,2.37
2019-03-06T20:56:15.253Z,2.33
2019-03-06T20:58:41.946Z,2.47
2019-03-06T21:01:08.682Z,2.50
2019-03-06T21:03:35.752Z,3.90
2019-03-06T21:06:02.517Z,2.80
2019-03-06T21:08:30.325Z,2.90
2019-03-06T21:10:57.170Z,3.10
2019-03-06T21:13:23.916Z,3.07
2019-03-06T21:15:50.666Z,3.40
2019-03-06T21:18:17.383Z,3.60
2019-03-06T21:20:44.371Z,4.60
2019-03-06T21:23:13.741Z,3.90
2019-03-06T21:25:40.507Z,3.90
2019-03-06T21:28:07.675Z,3.60
2019-03-06T21:30:36.621Z,3.70
2019-03-06T21:33:03.396Z,3.40
2019-03-06T21:35:30.223Z,3.80
2019-03-06T21:37:56.948Z,4.00
2019-03-06T21:40:24.677Z,3.70
2019-03-06T21:42:53.334Z,3.37
2019-03-06T21:45:20.065Z,3.67
2019-03-06T21:47:46.862Z,3.67
2019-03-06T21:50:16.993Z,3.70
2019-03-06T21:52:45.387Z,3.97
2019-03-06T21:55:12.423Z,3.80
2019-03-06T21:57:39.393Z,3.90
2019-03-06T22:00:09.763Z,3.57
2019-03-06T22:02:36.564Z,3.47
2019-03-06T22:05:04.536Z,3.60
2019-03-06T22:07:31.639Z,3.57
2019-03-06T22:09:59.567Z,3.90
2019-03-06T22:12:27.090Z,3.83
2019-03-06T22:14:54.360Z,4.37
2019-03-06T22:17:26.566Z,5.00
2019-03-06T22:19:56.156Z,5.23
2019-03-06T22:22:24.224Z,5.13
2019-03-06T22:24:56.556Z,4.10
2019-03-06T22:27:49.885Z,4.33
2019-03-06T22:34:39.602Z,3.70
2019-03-06T22:37:08.976Z,4.10
2019-03-06T22:39:36.502Z,3.73
2019-03-06T22:42:06.020Z,3.80
2019-03-06T22:44:33.861Z,4.17
2019-03-06T22:47:02.784Z,3.53
2019-03-06T22:49:29.706Z,3.97
2019-03-06T22:52:09.862Z,3.70
2019-03-06T22:54:41.289Z,3.93
2019-03-06T22:57:11.789Z,4.57
2019-03-06T22:59:41.955Z,4.30
2019-03-06T23:02:12.214Z,4.07
2019-03-06T23:04:39.451Z,3.33
2019-03-06T23:07:06.285Z,4.20
2019-03-06T23:09:33.422Z,4.37
2019-03-06T23:12:00.218Z,3.53
2019-03-06T23:14:27.012Z,2.97
2019-03-06T23:16:54.101Z,4.60
2019-03-06T23:19:21.062Z,3.30
2019-03-06T23:21:47.840Z,3.40
2019-03-06T23:24:15.002Z,3.77
2019-03-06T23:26:43.190Z,3.63
2019-03-06T23:29:10.364Z,4.27
2019-03-06T23:31:37.966Z,4.10
2019-03-06T23:34:04.811Z,4.40
2019-03-06T23:36:33.366Z,3.50
2019-03-06T23:39:00.278Z,3.70
2019-03-06T23:41:27.209Z,3.83
2019-03-06T23:43:56.500Z,4.07
2019-03-06T23:46:26.247Z,4.10
2019-03-06T23:48:53.346Z,4.20
2019-03-06T23:51:25.601Z,3.77
2019-03-06T23:53:53.884Z,3.80
2019-03-06T23:56:32.054Z,3.80
2019-03-06T23:59:40.986Z,3.97
